Aérodrome :
LOGIN :

S'inscrire | Disclaimer

   EN    FR    IT 

 










Légende :    VFR   VFR Marginal   IFR   IFR Intensif   IFR Très Intensif
Visi : 
Plafond : 
>= 8 km
>= 3000ft
5 à 8 km
1000 à 3000 ft
1500m à 5 km
500 à 1000 ft
800 à 1500m
200 à 500 ft
< 800m
< 200 ft
Symboles :   Orages  Brouillard  Fortes neiges  Fortes précipitations  Vent > 20 kt
SIGMETs :   Divers  Orages  Givrage  Turbulence  Onde Orograph.  Cendres Volcan.







- Altitude de l'aérodrome : 112 ft
- Code IATA : KIR


EIKY - Kerry Farranfore

DERNIER METAR :
  • 181600Z 20015KT 9999 BKN022 20/17 Q1015

METARs EXPIRÉS :
  • 181530Z 21012KT 170V230 9999 SCT023 22/17 Q1015
  • 181500Z 20007KT 160V220 9999 BKN019 21/17 Q1015
  • 181430Z 22007KT 180V240 9999 BKN018 21/18 Q1016
  • 181400Z 21008KT 180V240 9999 BKN019 21/18 Q1016
  • 181330Z 24011KT 220V310 9999 FEW015 SCT024 22/18 Q1016

TAF TAF EIKY
Valide du 18 à 15h jusqu'au 18 à 21h UTC


181400Z 1815/1821 24010KT 9999 SCT007 BKN016
BECMG 1815/1817 18010KT
PROB30
TEMPO 1815/1818 5000 -DZ BKN007
BECMG 1819/1821 22015G26KT 5000 RADZ SCT005 BKN008
Pas de NOTAMs connus pour ce terrain.



MET'MAP, la Météo Aéronautique d'un coup d'oeil ! - Copyright ORBIFLY Décembre 2007 - Disclaimer

ORBIFLY MET'MAP TEAM :

Programmation & Développement : Alexandra Zaïnal
Conception & Développement : Baudouin d'Aumeries
Co-Programmation & Développement : Marc-Olivier Méhu
Soutien technique & logistique : Manuel Goepfert

Contact : metmap@orbifly.com




SOURCES & CREDITS :

   NOAA